sensor_id;sensor_type;location;lat;lon;timestamp;P1;durP1;ratioP1;P2;durP2;ratioP2
13048;SDS011;6591;51.446;5.404;2023-01-06T00:01:34;5.70;;;3.03;;
13048;SDS011;6591;51.446;5.404;2023-01-06T00:04:01;3.60;;;2.93;;
13048;SDS011;6591;51.446;5.404;2023-01-06T00:06:30;6.77;;;3.07;;
13048;SDS011;6591;51.446;5.404;2023-01-06T00:08:59;4.90;;;3.03;;
13048;SDS011;6591;51.446;5.404;2023-01-06T00:11:28;5.63;;;3.13;;
13048;SDS011;6591;51.446;5.404;2023-01-06T00:13:56;4.90;;;3.10;;
13048;SDS011;6591;51.446;5.404;2023-01-06T00:16:25;6.73;;;2.77;;
13048;SDS011;6591;51.446;5.404;2023-01-06T00:18:55;4.87;;;2.77;;
13048;SDS011;6591;51.446;5.404;2023-01-06T00:21:24;3.87;;;2.40;;
13048;SDS011;6591;51.446;5.404;2023-01-06T00:23:52;3.63;;;2.33;;
13048;SDS011;6591;51.446;5.404;2023-01-06T00:26:19;4.03;;;2.60;;
13048;SDS011;6591;51.446;5.404;2023-01-06T00:28:50;3.97;;;2.20;;
13048;SDS011;6591;51.446;5.404;2023-01-06T00:31:19;4.60;;;2.20;;
13048;SDS011;6591;51.446;5.404;2023-01-06T00:33:47;5.03;;;2.47;;
13048;SDS011;6591;51.446;5.404;2023-01-06T00:41:12;3.23;;;2.00;;
13048;SDS011;6591;51.446;5.404;2023-01-06T00:43:59;2.73;;;1.77;;
13048;SDS011;6591;51.446;5.404;2023-01-06T00:46:27;2.23;;;1.80;;
13048;SDS011;6591;51.446;5.404;2023-01-06T00:48:57;4.40;;;2.00;;
13048;SDS011;6591;51.446;5.404;2023-01-06T00:51:32;3.70;;;1.93;;
13048;SDS011;6591;51.446;5.404;2023-01-06T00:54:06;2.83;;;2.00;;
13048;SDS011;6591;51.446;5.404;2023-01-06T00:56:39;4.27;;;1.73;;
13048;SDS011;6591;51.446;5.404;2023-01-06T00:59:11;2.87;;;1.70;;
13048;SDS011;6591;51.446;5.404;2023-01-06T01:01:40;3.07;;;1.73;;
13048;SDS011;6591;51.446;5.404;2023-01-06T01:04:11;3.67;;;1.60;;
13048;SDS011;6591;51.446;5.404;2023-01-06T01:06:40;11.57;;;2.20;;
13048;SDS011;6591;51.446;5.404;2023-01-06T01:09:12;3.03;;;1.57;;
13048;SDS011;6591;51.446;5.404;2023-01-06T01:11:44;2.17;;;1.63;;
13048;SDS011;6591;51.446;5.404;2023-01-06T01:14:31;2.97;;;1.60;;
13048;SDS011;6591;51.446;5.404;2023-01-06T01:16:58;3.30;;;2.00;;
13048;SDS011;6591;51.446;5.404;2023-01-06T01:19:26;5.07;;;1.70;;
13048;SDS011;6591;51.446;5.404;2023-01-06T01:21:54;3.97;;;1.80;;
13048;SDS011;6591;51.446;5.404;2023-01-06T01:24:22;2.97;;;1.23;;
13048;SDS011;6591;51.446;5.404;2023-01-06T01:26:49;2.07;;;1.57;;
13048;SDS011;6591;51.446;5.404;2023-01-06T01:29:16;1.47;;;1.27;;
13048;SDS011;6591;51.446;5.404;2023-01-06T01:31:45;2.43;;;1.60;;
13048;SDS011;6591;51.446;5.404;2023-01-06T01:34:13;2.90;;;1.30;;
13048;SDS011;6591;51.446;5.404;2023-01-06T01:36:42;3.73;;;1.90;;
13048;SDS011;6591;51.446;5.404;2023-01-06T01:39:13;2.83;;;1.37;;
13048;SDS011;6591;51.446;5.404;2023-01-06T01:41:42;2.50;;;1.50;;
13048;SDS011;6591;51.446;5.404;2023-01-06T01:47:36;3.10;;;1.33;;
13048;SDS011;6591;51.446;5.404;2023-01-06T01:53:18;4.53;;;1.30;;
13048;SDS011;6591;51.446;5.404;2023-01-06T01:55:59;1.73;;;1.50;;
13048;SDS011;6591;51.446;5.404;2023-01-06T02:01:05;2.93;;;1.20;;
13048;SDS011;6591;51.446;5.404;2023-01-06T02:03:36;2.87;;;1.50;;
13048;SDS011;6591;51.446;5.404;2023-01-06T02:06:11;1.90;;;1.30;;
13048;SDS011;6591;51.446;5.404;2023-01-06T02:08:59;1.90;;;1.30;;
13048;SDS011;6591;51.446;5.404;2023-01-06T02:11:49;3.17;;;1.30;;
13048;SDS011;6591;51.446;5.404;2023-01-06T02:14:20;6.30;;;1.53;;
13048;SDS011;6591;51.446;5.404;2023-01-06T02:20:08;1.80;;;1.20;;
13048;SDS011;6591;51.446;5.404;2023-01-06T02:27:01;2.57;;;1.20;;
13048;SDS011;6591;51.446;5.404;2023-01-06T02:32:40;2.00;;;1.00;;
13048;SDS011;6591;51.446;5.404;2023-01-06T02:36:01;2.87;;;1.50;;
13048;SDS011;6591;51.446;5.404;2023-01-06T02:38:38;2.63;;;1.10;;
13048;SDS011;6591;51.446;5.404;2023-01-06T02:48:05;2.03;;;1.13;;
13048;SDS011;6591;51.446;5.404;2023-01-06T02:50:41;4.17;;;1.13;;
13048;SDS011;6591;51.446;5.404;2023-01-06T02:53:38;3.80;;;1.10;;
13048;SDS011;6591;51.446;5.404;2023-01-06T02:56:21;3.03;;;1.20;;
13048;SDS011;6591;51.446;5.404;2023-01-06T02:59:02;1.27;;;0.90;;
13048;SDS011;6591;51.446;5.404;2023-01-06T03:01:36;2.43;;;1.10;;
13048;SDS011;6591;51.446;5.404;2023-01-06T03:04:11;6.83;;;1.50;;
13048;SDS011;6591;51.446;5.404;2023-01-06T03:06:51;2.30;;;1.10;;
13048;SDS011;6591;51.446;5.404;2023-01-06T03:09:26;1.30;;;1.13;;
13048;SDS011;6591;51.446;5.404;2023-01-06T03:11:59;1.93;;;1.10;;
13048;SDS011;6591;51.446;5.404;2023-01-06T03:14:39;1.57;;;1.10;;
13048;SDS011;6591;51.446;5.404;2023-01-06T03:17:15;1.03;;;0.90;;
13048;SDS011;6591;51.446;5.404;2023-01-06T03:19:46;2.77;;;1.30;;
13048;SDS011;6591;51.446;5.404;2023-01-06T03:22:16;3.40;;;1.33;;
13048;SDS011;6591;51.446;5.404;2023-01-06T03:24:49;2.60;;;1.20;;
13048;SDS011;6591;51.446;5.404;2023-01-06T03:27:21;3.63;;;1.10;;
13048;SDS011;6591;51.446;5.404;2023-01-06T03:29:53;3.17;;;1.43;;
13048;SDS011;6591;51.446;5.404;2023-01-06T03:40:56;2.73;;;1.20;;
13048;SDS011;6591;51.446;5.404;2023-01-06T03:51:56;1.33;;;1.00;;
13048;SDS011;6591;51.446;5.404;2023-01-06T03:57:20;2.97;;;1.20;;
13048;SDS011;6591;51.446;5.404;2023-01-06T04:00:00;2.73;;;1.13;;
13048;SDS011;6591;51.446;5.404;2023-01-06T04:02:45;1.97;;;1.00;;
13048;SDS011;6591;51.446;5.404;2023-01-06T04:05:20;2.23;;;0.90;;
13048;SDS011;6591;51.446;5.404;2023-01-06T04:07:51;1.37;;;0.90;;
13048;SDS011;6591;51.446;5.404;2023-01-06T04:10:20;1.87;;;1.00;;
13048;SDS011;6591;51.446;5.404;2023-01-06T04:12:52;2.13;;;1.10;;
13048;SDS011;6591;51.446;5.404;2023-01-06T04:15:25;1.93;;;1.00;;
13048;SDS011;6591;51.446;5.404;2023-01-06T04:18:03;2.43;;;0.83;;
13048;SDS011;6591;51.446;5.404;2023-01-06T04:20:34;5.10;;;1.10;;
13048;SDS011;6591;51.446;5.404;2023-01-06T04:23:21;2.40;;;1.00;;
13048;SDS011;6591;51.446;5.404;2023-01-06T04:25:49;2.47;;;1.10;;
13048;SDS011;6591;51.446;5.404;2023-01-06T04:28:29;2.13;;;1.20;;
13048;SDS011;6591;51.446;5.404;2023-01-06T04:30:57;1.60;;;1.00;;
13048;SDS011;6591;51.446;5.404;2023-01-06T04:33:31;2.70;;;1.20;;
13048;SDS011;6591;51.446;5.404;2023-01-06T04:36:00;1.50;;;1.13;;
13048;SDS011;6591;51.446;5.404;2023-01-06T04:38:27;2.97;;;1.13;;
13048;SDS011;6591;51.446;5.404;2023-01-06T04:40:55;5.70;;;1.23;;
13048;SDS011;6591;51.446;5.404;2023-01-06T04:43:22;0.83;;;0.80;;
13048;SDS011;6591;51.446;5.404;2023-01-06T04:45:49;1.63;;;1.07;;
13048;SDS011;6591;51.446;5.404;2023-01-06T04:48:16;2.37;;;0.93;;
13048;SDS011;6591;51.446;5.404;2023-01-06T04:50:46;1.40;;;0.97;;
13048;SDS011;6591;51.446;5.404;2023-01-06T04:53:27;1.07;;;0.80;;
13048;SDS011;6591;51.446;5.404;2023-01-06T04:55:54;1.90;;;0.90;;
13048;SDS011;6591;51.446;5.404;2023-01-06T04:58:21;1.03;;;0.70;;
13048;SDS011;6591;51.446;5.404;2023-01-06T05:00:57;1.90;;;0.87;;
13048;SDS011;6591;51.446;5.404;2023-01-06T05:03:28;1.23;;;0.70;;
13048;SDS011;6591;51.446;5.404;2023-01-06T05:06:00;2.20;;;0.90;;
13048;SDS011;6591;51.446;5.404;2023-01-06T05:08:36;1.13;;;0.83;;
13048;SDS011;6591;51.446;5.404;2023-01-06T05:11:06;0.90;;;0.87;;
13048;SDS011;6591;51.446;5.404;2023-01-06T05:13:38;1.27;;;1.13;;
13048;SDS011;6591;51.446;5.404;2023-01-06T05:16:09;1.20;;;0.80;;
13048;SDS011;6591;51.446;5.404;2023-01-06T05:18:42;1.80;;;1.10;;
13048;SDS011;6591;51.446;5.404;2023-01-06T05:21:09;1.13;;;0.87;;
13048;SDS011;6591;51.446;5.404;2023-01-06T05:23:37;1.80;;;1.00;;
13048;SDS011;6591;51.446;5.404;2023-01-06T05:26:05;0.83;;;0.77;;
13048;SDS011;6591;51.446;5.404;2023-01-06T05:28:35;1.30;;;1.00;;
13048;SDS011;6591;51.446;5.404;2023-01-06T05:31:02;0.67;;;0.60;;
13048;SDS011;6591;51.446;5.404;2023-01-06T05:33:31;1.23;;;0.90;;
13048;SDS011;6591;51.446;5.404;2023-01-06T05:36:03;2.93;;;0.83;;
13048;SDS011;6591;51.446;5.404;2023-01-06T05:38:37;1.10;;;0.90;;
13048;SDS011;6591;51.446;5.404;2023-01-06T05:41:04;1.57;;;0.90;;
13048;SDS011;6591;51.446;5.404;2023-01-06T05:43:32;2.50;;;0.87;;
13048;SDS011;6591;51.446;5.404;2023-01-06T05:46:05;1.60;;;0.87;;
13048;SDS011;6591;51.446;5.404;2023-01-06T05:48:35;1.23;;;0.70;;
13048;SDS011;6591;51.446;5.404;2023-01-06T05:51:05;0.83;;;0.80;;
13048;SDS011;6591;51.446;5.404;2023-01-06T05:53:37;2.77;;;1.20;;
13048;SDS011;6591;51.446;5.404;2023-01-06T05:56:08;2.47;;;0.93;;
13048;SDS011;6591;51.446;5.404;2023-01-06T05:58:38;1.37;;;0.70;;
13048;SDS011;6591;51.446;5.404;2023-01-06T06:01:18;1.27;;;0.80;;
13048;SDS011;6591;51.446;5.404;2023-01-06T06:03:54;1.30;;;0.80;;
13048;SDS011;6591;51.446;5.404;2023-01-06T06:06:22;2.90;;;1.00;;
13048;SDS011;6591;51.446;5.404;2023-01-06T06:08:52;2.03;;;0.87;;
13048;SDS011;6591;51.446;5.404;2023-01-06T06:11:19;1.67;;;0.97;;
13048;SDS011;6591;51.446;5.404;2023-01-06T06:13:48;2.90;;;0.87;;
13048;SDS011;6591;51.446;5.404;2023-01-06T06:16:20;1.23;;;0.80;;
13048;SDS011;6591;51.446;5.404;2023-01-06T06:18:53;1.87;;;0.90;;
13048;SDS011;6591;51.446;5.404;2023-01-06T06:21:27;0.63;;;0.57;;
13048;SDS011;6591;51.446;5.404;2023-01-06T06:23:56;0.77;;;0.77;;
13048;SDS011;6591;51.446;5.404;2023-01-06T06:26:25;1.17;;;1.07;;
13048;SDS011;6591;51.446;5.404;2023-01-06T06:28:54;1.83;;;1.00;;
13048;SDS011;6591;51.446;5.404;2023-01-06T06:31:24;2.73;;;0.97;;
13048;SDS011;6591;51.446;5.404;2023-01-06T06:33:55;2.50;;;1.07;;
13048;SDS011;6591;51.446;5.404;2023-01-06T06:36:25;1.27;;;0.87;;
13048;SDS011;6591;51.446;5.404;2023-01-06T06:38:54;1.50;;;0.90;;
13048;SDS011;6591;51.446;5.404;2023-01-06T06:41:24;1.37;;;0.80;;
13048;SDS011;6591;51.446;5.404;2023-01-06T06:43:52;1.07;;;0.97;;
13048;SDS011;6591;51.446;5.404;2023-01-06T06:46:19;2.27;;;1.13;;
13048;SDS011;6591;51.446;5.404;2023-01-06T06:48:50;1.67;;;1.00;;
13048;SDS011;6591;51.446;5.404;2023-01-06T06:51:20;1.63;;;0.93;;
13048;SDS011;6591;51.446;5.404;2023-01-06T06:53:55;2.23;;;1.00;;
13048;SDS011;6591;51.446;5.404;2023-01-06T06:56:23;1.30;;;0.80;;
13048;SDS011;6591;51.446;5.404;2023-01-06T06:58:50;3.37;;;1.10;;
13048;SDS011;6591;51.446;5.404;2023-01-06T07:01:20;1.73;;;1.17;;
13048;SDS011;6591;51.446;5.404;2023-01-06T07:03:47;1.77;;;1.10;;
13048;SDS011;6591;51.446;5.404;2023-01-06T07:06:19;2.47;;;1.00;;
13048;SDS011;6591;51.446;5.404;2023-01-06T07:08:53;1.63;;;0.90;;
13048;SDS011;6591;51.446;5.404;2023-01-06T07:11:20;1.90;;;1.03;;
13048;SDS011;6591;51.446;5.404;2023-01-06T07:13:50;1.57;;;1.07;;
13048;SDS011;6591;51.446;5.404;2023-01-06T07:16:20;2.10;;;1.10;;
13048;SDS011;6591;51.446;5.404;2023-01-06T07:18:51;1.43;;;1.20;;
13048;SDS011;6591;51.446;5.404;2023-01-06T07:21:19;2.10;;;1.20;;
13048;SDS011;6591;51.446;5.404;2023-01-06T07:23:46;2.50;;;1.37;;
13048;SDS011;6591;51.446;5.404;2023-01-06T07:26:20;4.77;;;1.40;;
13048;SDS011;6591;51.446;5.404;2023-01-06T07:28:48;1.00;;;0.90;;
13048;SDS011;6591;51.446;5.404;2023-01-06T07:31:15;1.40;;;1.13;;
13048;SDS011;6591;51.446;5.404;2023-01-06T07:33:46;2.07;;;1.03;;
13048;SDS011;6591;51.446;5.404;2023-01-06T07:36:16;1.10;;;1.00;;
13048;SDS011;6591;51.446;5.404;2023-01-06T07:38:50;1.90;;;1.17;;
13048;SDS011;6591;51.446;5.404;2023-01-06T07:41:20;2.53;;;1.47;;
13048;SDS011;6591;51.446;5.404;2023-01-06T07:43:51;1.97;;;1.23;;
13048;SDS011;6591;51.446;5.404;2023-01-06T07:46:18;1.70;;;0.90;;
13048;SDS011;6591;51.446;5.404;2023-01-06T07:48:46;1.60;;;1.00;;
13048;SDS011;6591;51.446;5.404;2023-01-06T07:51:15;1.27;;;1.00;;
13048;SDS011;6591;51.446;5.404;2023-01-06T07:53:44;1.60;;;1.00;;
13048;SDS011;6591;51.446;5.404;2023-01-06T07:56:11;1.97;;;1.00;;
13048;SDS011;6591;51.446;5.404;2023-01-06T07:58:38;1.27;;;1.00;;
13048;SDS011;6591;51.446;5.404;2023-01-06T08:01:06;3.07;;;1.30;;
13048;SDS011;6591;51.446;5.404;2023-01-06T08:03:34;1.17;;;1.07;;
13048;SDS011;6591;51.446;5.404;2023-01-06T08:06:08;2.47;;;1.20;;
13048;SDS011;6591;51.446;5.404;2023-01-06T08:08:36;1.27;;;1.03;;
13048;SDS011;6591;51.446;5.404;2023-01-06T08:11:06;2.33;;;1.17;;
13048;SDS011;6591;51.446;5.404;2023-01-06T08:13:37;1.23;;;1.10;;
13048;SDS011;6591;51.446;5.404;2023-01-06T08:16:05;1.30;;;1.20;;
13048;SDS011;6591;51.446;5.404;2023-01-06T08:18:34;1.50;;;1.40;;
13048;SDS011;6591;51.446;5.404;2023-01-06T08:21:03;2.97;;;1.17;;
13048;SDS011;6591;51.446;5.404;2023-01-06T08:23:36;2.47;;;1.10;;
13048;SDS011;6591;51.446;5.404;2023-01-06T08:26:05;1.47;;;1.10;;
13048;SDS011;6591;51.446;5.404;2023-01-06T08:28:44;1.17;;;1.07;;
13048;SDS011;6591;51.446;5.404;2023-01-06T08:31:16;1.20;;;1.10;;
13048;SDS011;6591;51.446;5.404;2023-01-06T08:33:49;2.10;;;1.10;;
13048;SDS011;6591;51.446;5.404;2023-01-06T08:36:19;2.23;;;1.30;;
13048;SDS011;6591;51.446;5.404;2023-01-06T08:38:49;2.20;;;1.37;;
13048;SDS011;6591;51.446;5.404;2023-01-06T08:41:19;1.23;;;1.20;;
13048;SDS011;6591;51.446;5.404;2023-01-06T08:43:46;1.77;;;1.30;;
13048;SDS011;6591;51.446;5.404;2023-01-06T08:46:18;1.67;;;1.30;;
13048;SDS011;6591;51.446;5.404;2023-01-06T08:48:46;1.40;;;1.30;;
13048;SDS011;6591;51.446;5.404;2023-01-06T08:51:20;1.30;;;1.20;;
13048;SDS011;6591;51.446;5.404;2023-01-06T08:53:51;1.57;;;1.20;;
13048;SDS011;6591;51.446;5.404;2023-01-06T08:56:19;1.80;;;1.70;;
13048;SDS011;6591;51.446;5.404;2023-01-06T08:58:58;1.40;;;1.30;;
13048;SDS011;6591;51.446;5.404;2023-01-06T09:01:29;2.50;;;1.40;;
13048;SDS011;6591;51.446;5.404;2023-01-06T09:03:59;1.50;;;1.40;;
13048;SDS011;6591;51.446;5.404;2023-01-06T09:06:31;2.03;;;1.40;;
13048;SDS011;6591;51.446;5.404;2023-01-06T09:08:59;1.70;;;1.60;;
13048;SDS011;6591;51.446;5.404;2023-01-06T09:11:30;1.87;;;1.53;;
13048;SDS011;6591;51.446;5.404;2023-01-06T09:13:57;1.60;;;1.50;;
13048;SDS011;6591;51.446;5.404;2023-01-06T09:16:24;1.90;;;1.70;;
13048;SDS011;6591;51.446;5.404;2023-01-06T09:18:51;1.90;;;1.60;;
13048;SDS011;6591;51.446;5.404;2023-01-06T09:21:21;2.27;;;1.80;;
13048;SDS011;6591;51.446;5.404;2023-01-06T09:23:49;2.30;;;1.63;;
13048;SDS011;6591;51.446;5.404;2023-01-06T09:26:18;4.77;;;2.10;;
13048;SDS011;6591;51.446;5.404;2023-01-06T09:28:50;2.43;;;1.77;;
13048;SDS011;6591;51.446;5.404;2023-01-06T09:31:18;3.07;;;1.90;;
13048;SDS011;6591;51.446;5.404;2023-01-06T09:33:46;2.10;;;1.90;;
13048;SDS011;6591;51.446;5.404;2023-01-06T09:36:16;1.73;;;1.63;;
13048;SDS011;6591;51.446;5.404;2023-01-06T09:38:50;1.93;;;1.70;;
13048;SDS011;6591;51.446;5.404;2023-01-06T09:44:31;2.00;;;1.60;;
13048;SDS011;6591;51.446;5.404;2023-01-06T09:47:05;1.60;;;1.50;;
13048;SDS011;6591;51.446;5.404;2023-01-06T09:49:45;1.67;;;1.57;;
13048;SDS011;6591;51.446;5.404;2023-01-06T09:52:32;1.93;;;1.70;;
13048;SDS011;6591;51.446;5.404;2023-01-06T09:55:13;2.43;;;1.80;;
13048;SDS011;6591;51.446;5.404;2023-01-06T09:57:58;2.00;;;1.90;;
13048;SDS011;6591;51.446;5.404;2023-01-06T10:00:42;3.37;;;2.03;;
13048;SDS011;6591;51.446;5.404;2023-01-06T10:03:17;2.07;;;1.80;;
13048;SDS011;6591;51.446;5.404;2023-01-06T10:09:07;2.30;;;1.97;;
13048;SDS011;6591;51.446;5.404;2023-01-06T10:12:05;2.57;;;2.37;;
13048;SDS011;6591;51.446;5.404;2023-01-06T10:15:00;2.30;;;2.07;;
13048;SDS011;6591;51.446;5.404;2023-01-06T10:17:57;2.73;;;2.40;;
13048;SDS011;6591;51.446;5.404;2023-01-06T10:20:52;2.70;;;2.47;;
13048;SDS011;6591;51.446;5.404;2023-01-06T10:26:42;3.63;;;3.07;;
13048;SDS011;6591;51.446;5.404;2023-01-06T10:29:17;4.13;;;2.60;;
13048;SDS011;6591;51.446;5.404;2023-01-06T10:31:50;3.53;;;3.03;;
13048;SDS011;6591;51.446;5.404;2023-01-06T10:34:24;4.37;;;3.97;;
13048;SDS011;6591;51.446;5.404;2023-01-06T10:37:00;3.57;;;3.27;;
13048;SDS011;6591;51.446;5.404;2023-01-06T10:39:45;5.77;;;3.97;;
13048;SDS011;6591;51.446;5.404;2023-01-06T10:45:27;4.70;;;4.20;;
13048;SDS011;6591;51.446;5.404;2023-01-06T10:48:02;5.43;;;4.67;;
13048;SDS011;6591;51.446;5.404;2023-01-06T10:50:32;5.47;;;4.97;;
13048;SDS011;6591;51.446;5.404;2023-01-06T10:53:00;8.07;;;4.70;;
13048;SDS011;6591;51.446;5.404;2023-01-06T10:55:31;6.47;;;4.53;;
13048;SDS011;6591;51.446;5.404;2023-01-06T10:58:10;6.07;;;5.00;;
13048;SDS011;6591;51.446;5.404;2023-01-06T11:04:06;5.13;;;4.33;;
13048;SDS011;6591;51.446;5.404;2023-01-06T11:06:38;5.70;;;5.10;;
13048;SDS011;6591;51.446;5.404;2023-01-06T11:09:23;5.70;;;5.13;;
13048;SDS011;6591;51.446;5.404;2023-01-06T11:12:12;8.00;;;6.03;;
13048;SDS011;6591;51.446;5.404;2023-01-06T11:15:00;6.90;;;5.70;;
13048;SDS011;6591;51.446;5.404;2023-01-06T11:17:32;6.30;;;5.60;;
13048;SDS011;6591;51.446;5.404;2023-01-06T11:20:04;6.60;;;5.63;;
13048;SDS011;6591;51.446;5.404;2023-01-06T11:22:53;5.63;;;5.03;;
13048;SDS011;6591;51.446;5.404;2023-01-06T11:25:24;7.47;;;5.57;;
13048;SDS011;6591;51.446;5.404;2023-01-06T11:28:15;6.43;;;4.80;;
13048;SDS011;6591;51.446;5.404;2023-01-06T11:30:52;6.50;;;5.67;;
13048;SDS011;6591;51.446;5.404;2023-01-06T11:33:30;5.80;;;4.77;;
13048;SDS011;6591;51.446;5.404;2023-01-06T11:36:05;6.40;;;4.80;;
13048;SDS011;6591;51.446;5.404;2023-01-06T11:38:40;4.90;;;4.10;;
13048;SDS011;6591;51.446;5.404;2023-01-06T11:41:30;5.27;;;3.70;;
13048;SDS011;6591;51.446;5.404;2023-01-06T11:44:06;4.00;;;3.20;;
13048;SDS011;6591;51.446;5.404;2023-01-06T11:47:05;4.00;;;2.63;;
13048;SDS011;6591;51.446;5.404;2023-01-06T11:49:53;3.30;;;2.90;;
13048;SDS011;6591;51.446;5.404;2023-01-06T11:52:27;4.23;;;2.80;;
13048;SDS011;6591;51.446;5.404;2023-01-06T11:55:02;5.23;;;3.07;;
13048;SDS011;6591;51.446;5.404;2023-01-06T11:57:58;4.70;;;2.90;;
13048;SDS011;6591;51.446;5.404;2023-01-06T12:00:46;4.73;;;3.27;;
13048;SDS011;6591;51.446;5.404;2023-01-06T12:03:40;3.37;;;2.80;;
13048;SDS011;6591;51.446;5.404;2023-01-06T12:11:28;5.13;;;2.93;;
13048;SDS011;6591;51.446;5.404;2023-01-06T12:14:38;4.17;;;3.07;;
13048;SDS011;6591;51.446;5.404;2023-01-06T12:17:06;3.93;;;2.50;;
13048;SDS011;6591;51.446;5.404;2023-01-06T12:20:14;3.27;;;2.33;;
13048;SDS011;6591;51.446;5.404;2023-01-06T12:25:55;3.43;;;2.03;;
13048;SDS011;6591;51.446;5.404;2023-01-06T12:28:24;2.50;;;2.00;;
13048;SDS011;6591;51.446;5.404;2023-01-06T12:36:41;3.63;;;1.90;;
13048;SDS011;6591;51.446;5.404;2023-01-06T12:39:22;2.27;;;1.77;;
13048;SDS011;6591;51.446;5.404;2023-01-06T12:51:22;3.97;;;1.70;;
13048;SDS011;6591;51.446;5.404;2023-01-06T12:54:12;3.40;;;1.50;;
13048;SDS011;6591;51.446;5.404;2023-01-06T12:59:48;2.40;;;1.60;;
13048;SDS011;6591;51.446;5.404;2023-01-06T13:14:10;2.97;;;1.50;;
13048;SDS011;6591;51.446;5.404;2023-01-06T13:16:55;2.70;;;1.40;;
13048;SDS011;6591;51.446;5.404;2023-01-06T13:22:10;2.67;;;1.50;;
13048;SDS011;6591;51.446;5.404;2023-01-06T13:40:08;4.33;;;1.60;;
13048;SDS011;6591;51.446;5.404;2023-01-06T13:42:45;2.27;;;1.40;;
13048;SDS011;6591;51.446;5.404;2023-01-06T13:45:25;2.73;;;1.50;;
13048;SDS011;6591;51.446;5.404;2023-01-06T13:47:58;1.87;;;1.43;;
13048;SDS011;6591;51.446;5.404;2023-01-06T13:50:34;2.57;;;1.47;;
13048;SDS011;6591;51.446;5.404;2023-01-06T13:53:04;3.03;;;1.50;;
13048;SDS011;6591;51.446;5.404;2023-01-06T13:55:32;1.53;;;1.30;;
13048;SDS011;6591;51.446;5.404;2023-01-06T14:01:39;1.47;;;1.37;;
13048;SDS011;6591;51.446;5.404;2023-01-06T14:03:47;1.30;;;1.20;;
13048;SDS011;6591;51.446;5.404;2023-01-06T14:08:53;2.23;;;1.50;;
13048;SDS011;6591;51.446;5.404;2023-01-06T14:11:35;1.57;;;1.30;;
13048;SDS011;6591;51.446;5.404;2023-01-06T14:14:05;3.30;;;1.60;;
13048;SDS011;6591;51.446;5.404;2023-01-06T14:16:51;1.63;;;1.20;;
13048;SDS011;6591;51.446;5.404;2023-01-06T14:19:21;2.23;;;1.40;;
13048;SDS011;6591;51.446;5.404;2023-01-06T14:22:19;1.53;;;1.30;;
13048;SDS011;6591;51.446;5.404;2023-01-06T14:24:50;1.60;;;1.40;;
13048;SDS011;6591;51.446;5.404;2023-01-06T14:30:20;1.20;;;1.10;;
13048;SDS011;6591;51.446;5.404;2023-01-06T14:32:58;1.30;;;1.20;;
13048;SDS011;6591;51.446;5.404;2023-01-06T14:35:37;1.20;;;1.10;;
13048;SDS011;6591;51.446;5.404;2023-01-06T14:40:54;1.23;;;1.13;;
13048;SDS011;6591;51.446;5.404;2023-01-06T14:43:35;2.13;;;1.10;;
13048;SDS011;6591;51.446;5.404;2023-01-06T14:46:23;1.13;;;1.10;;
13048;SDS011;6591;51.446;5.404;2023-01-06T14:48:59;1.50;;;1.20;;
13048;SDS011;6591;51.446;5.404;2023-01-06T14:51:30;2.50;;;1.20;;
13048;SDS011;6591;51.446;5.404;2023-01-06T14:54:00;1.30;;;1.20;;
13048;SDS011;6591;51.446;5.404;2023-01-06T14:57:00;1.87;;;1.40;;
13048;SDS011;6591;51.446;5.404;2023-01-06T14:59:28;1.27;;;1.17;;
13048;SDS011;6591;51.446;5.404;2023-01-06T15:02:00;1.30;;;1.20;;
13048;SDS011;6591;51.446;5.404;2023-01-06T15:04:40;1.03;;;1.03;;
13048;SDS011;6591;51.446;5.404;2023-01-06T15:07:17;1.37;;;1.10;;
13048;SDS011;6591;51.446;5.404;2023-01-06T15:09:48;1.10;;;1.00;;
13048;SDS011;6591;51.446;5.404;2023-01-06T15:12:23;1.30;;;1.20;;
13048;SDS011;6591;51.446;5.404;2023-01-06T15:14:55;1.10;;;1.00;;
13048;SDS011;6591;51.446;5.404;2023-01-06T15:17:39;1.30;;;1.20;;
13048;SDS011;6591;51.446;5.404;2023-01-06T15:20:10;1.20;;;1.10;;
13048;SDS011;6591;51.446;5.404;2023-01-06T15:22:39;1.10;;;1.00;;
13048;SDS011;6591;51.446;5.404;2023-01-06T15:25:21;1.63;;;1.17;;
13048;SDS011;6591;51.446;5.404;2023-01-06T15:27:51;1.33;;;1.20;;
13048;SDS011;6591;51.446;5.404;2023-01-06T15:30:21;1.30;;;1.20;;
13048;SDS011;6591;51.446;5.404;2023-01-06T15:33:02;1.37;;;1.27;;
13048;SDS011;6591;51.446;5.404;2023-01-06T15:35:30;1.40;;;1.30;;
13048;SDS011;6591;51.446;5.404;2023-01-06T15:38:02;1.40;;;1.30;;
13048;SDS011;6591;51.446;5.404;2023-01-06T15:40:53;2.70;;;1.20;;
13048;SDS011;6591;51.446;5.404;2023-01-06T15:43:21;1.40;;;1.30;;
13048;SDS011;6591;51.446;5.404;2023-01-06T15:45:58;1.70;;;1.60;;
13048;SDS011;6591;51.446;5.404;2023-01-06T15:48:33;2.43;;;1.50;;
13048;SDS011;6591;51.446;5.404;2023-01-06T15:51:10;1.80;;;1.70;;
13048;SDS011;6591;51.446;5.404;2023-01-06T15:53:41;2.20;;;2.00;;
13048;SDS011;6591;51.446;5.404;2023-01-06T15:56:15;2.47;;;1.87;;
13048;SDS011;6591;51.446;5.404;2023-01-06T15:58:47;2.20;;;2.00;;
13048;SDS011;6591;51.446;5.404;2023-01-06T16:01:20;1.97;;;1.80;;
13048;SDS011;6591;51.446;5.404;2023-01-06T16:03:51;2.20;;;2.00;;
13048;SDS011;6591;51.446;5.404;2023-01-06T16:06:25;2.13;;;1.90;;
13048;SDS011;6591;51.446;5.404;2023-01-06T16:09:15;2.03;;;1.83;;
13048;SDS011;6591;51.446;5.404;2023-01-06T16:14:35;2.37;;;1.70;;
13048;SDS011;6591;51.446;5.404;2023-01-06T16:17:09;1.73;;;1.60;;
13048;SDS011;6591;51.446;5.404;2023-01-06T16:19:58;1.83;;;1.73;;
13048;SDS011;6591;51.446;5.404;2023-01-06T16:22:33;2.10;;;1.90;;
13048;SDS011;6591;51.446;5.404;2023-01-06T16:25:22;2.30;;;2.10;;
13048;SDS011;6591;51.446;5.404;2023-01-06T16:27:54;2.10;;;1.90;;
13048;SDS011;6591;51.446;5.404;2023-01-06T16:30:27;2.50;;;2.10;;
13048;SDS011;6591;51.446;5.404;2023-01-06T16:32:58;2.60;;;2.40;;
13048;SDS011;6591;51.446;5.404;2023-01-06T16:35:27;2.53;;;2.33;;
13048;SDS011;6591;51.446;5.404;2023-01-06T16:38:00;3.27;;;2.37;;
13048;SDS011;6591;51.446;5.404;2023-01-06T16:40:27;2.30;;;2.10;;
13048;SDS011;6591;51.446;5.404;2023-01-06T16:42:56;3.47;;;2.30;;
13048;SDS011;6591;51.446;5.404;2023-01-06T16:45:37;2.53;;;2.33;;
13048;SDS011;6591;51.446;5.404;2023-01-06T16:48:14;2.40;;;2.20;;
13048;SDS011;6591;51.446;5.404;2023-01-06T16:50:45;2.23;;;2.03;;
13048;SDS011;6591;51.446;5.404;2023-01-06T16:53:19;2.60;;;2.40;;
13048;SDS011;6591;51.446;5.404;2023-01-06T16:55:51;2.00;;;1.90;;
13048;SDS011;6591;51.446;5.404;2023-01-06T16:58:26;2.80;;;2.30;;
13048;SDS011;6591;51.446;5.404;2023-01-06T17:00:57;2.77;;;2.37;;
13048;SDS011;6591;51.446;5.404;2023-01-06T17:03:38;2.33;;;2.13;;
13048;SDS011;6591;51.446;5.404;2023-01-06T17:06:24;2.17;;;1.97;;
13048;SDS011;6591;51.446;5.404;2023-01-06T17:08:58;2.50;;;2.30;;
13048;SDS011;6591;51.446;5.404;2023-01-06T17:11:28;2.60;;;2.40;;
13048;SDS011;6591;51.446;5.404;2023-01-06T17:14:03;3.13;;;2.40;;
13048;SDS011;6591;51.446;5.404;2023-01-06T17:16:41;2.53;;;2.33;;
13048;SDS011;6591;51.446;5.404;2023-01-06T17:19:20;3.40;;;2.20;;
13048;SDS011;6591;51.446;5.404;2023-01-06T17:21:58;2.23;;;2.03;;
13048;SDS011;6591;51.446;5.404;2023-01-06T17:24:46;2.60;;;2.40;;
13048;SDS011;6591;51.446;5.404;2023-01-06T17:27:24;2.50;;;2.30;;
13048;SDS011;6591;51.446;5.404;2023-01-06T17:29:57;2.37;;;2.10;;
13048;SDS011;6591;51.446;5.404;2023-01-06T17:32:36;2.63;;;2.43;;
13048;SDS011;6591;51.446;5.404;2023-01-06T17:35:23;2.67;;;2.37;;
13048;SDS011;6591;51.446;5.404;2023-01-06T17:38:39;2.80;;;2.40;;
13048;SDS011;6591;51.446;5.404;2023-01-06T17:40:49;3.03;;;2.70;;
13048;SDS011;6591;51.446;5.404;2023-01-06T17:45:54;2.80;;;2.60;;
13048;SDS011;6591;51.446;5.404;2023-01-06T17:48:23;2.47;;;2.27;;
13048;SDS011;6591;51.446;5.404;2023-01-06T17:50:52;2.60;;;2.40;;
13048;SDS011;6591;51.446;5.404;2023-01-06T17:56:16;2.73;;;2.53;;
13048;SDS011;6591;51.446;5.404;2023-01-06T17:58:45;2.53;;;2.33;;
13048;SDS011;6591;51.446;5.404;2023-01-06T18:01:23;2.90;;;2.60;;
13048;SDS011;6591;51.446;5.404;2023-01-06T18:03:54;3.13;;;2.40;;
13048;SDS011;6591;51.446;5.404;2023-01-06T18:06:31;2.57;;;2.37;;